Terminal Aerodrome Forecast
Issued by NWS

Current Version | Previous Version | Text Only | Print | Product List | Glossary Off
Versions: 1 2 3 4 5 6 7 8 9 10 11 12 13 14 15 16 17 18 19 20 21 22 23

954
FTUS41 KPBZ 222320
TAFMGW
TAF
KMGW 222320Z 2300/2324 09009KT P6SM -SHRA OVC080
     FM230700 09012G22KT P6SM -RA SCT040 OVC080
     FM230900 07015G26KT 6SM -RA SCT020 OVC080
     FM231500 09016G26KT 3SM -RA OVC020
     FM231700 08014G22KT 2SM -RA OVC015
     FM232200 08009KT 2SM -RA OVC015=

USA.gov is the U.S. government's official web portal to all federal, state and local government web resources and services.